createdAt,value
2023-04-30T00:00:56.066Z,-140.69
2023-04-30T00:01:59.340Z,-120.21
2023-04-30T00:03:02.612Z,18.04
2023-04-30T00:04:05.909Z,-33.17
2023-04-30T00:05:09.194Z,-40.85
2023-04-30T00:06:12.469Z,2.56
2023-04-30T00:07:15.831Z,-135.57
2023-04-30T00:08:19.074Z,-112.53
2023-04-30T00:09:21.388Z,-76.69
2023-04-30T00:10:24.748Z,-71.57
2023-04-30T00:11:27.995Z,2.68
2023-04-30T00:12:31.259Z,-20.37
2023-04-30T00:13:34.598Z,-40.85
2023-04-30T00:14:37.850Z,-112.53
2023-04-30T00:15:41.141Z,-48.53
2023-04-30T00:16:43.494Z,-56.21
2023-04-30T00:17:45.774Z,10.36
2023-04-30T00:18:49.063Z,-33.17
2023-04-30T00:19:51.369Z,10.36
2023-04-30T00:20:53.669Z,61.56
2023-04-30T00:21:56.963Z,2.68
2023-04-30T00:23:00.286Z,25.72
2023-04-30T00:24:03.562Z,99.96
2023-04-30T00:25:06.840Z,2.68
2023-04-30T00:26:10.126Z,10.36
2023-04-30T00:27:13.478Z,-20.37
2023-04-30T00:28:16.720Z,84.6
2023-04-30T00:29:20.061Z,143.48
2023-04-30T00:30:23.365Z,99.96
2023-04-30T00:31:26.665Z,189.56
2023-04-30T00:32:29.896Z,315
2023-04-30T00:33:33.168Z,276.6
2023-04-30T00:34:35.543Z,-291.72
2023-04-30T00:35:38.773Z,-307.08
2023-04-30T00:36:42.079Z,-284.04
2023-04-30T00:37:45.368Z,-127.88
2023-04-30T00:38:48.650Z,-209.8
2023-04-30T00:39:51.935Z,-179.08
2023-04-30T00:41:58.544Z,-235.4
2023-04-30T00:43:00.855Z,-209.8
2023-04-30T00:44:03.183Z,-209.8
2023-04-30T00:45:05.467Z,-276.36
2023-04-30T00:46:07.798Z,-209.8
2023-04-30T00:47:11.051Z,-145.8
2023-04-30T00:48:14.343Z,-135.56
2023-04-30T00:49:17.632Z,-202.12
2023-04-30T00:50:20.930Z,-202.12
2023-04-30T00:51:24.225Z,-145.8
2023-04-30T00:52:27.513Z,-161.16
2023-04-30T00:53:30.792Z,-161.16
2023-04-30T00:54:34.099Z,-243.08
2023-04-30T00:55:37.401Z,-250.76
2023-04-30T00:56:40.680Z,-235.4
2023-04-30T00:57:43.973Z,-291.72
2023-04-30T00:58:47.279Z,-250.76
2023-04-30T00:59:49.700Z,-243.08
2023-04-30T01:00:52.875Z,-235.4
2023-04-30T01:01:56.198Z,-250.76
2023-04-30T01:02:59.451Z,-220.04
2023-04-30T01:04:02.825Z,-209.8
2023-04-30T01:05:06.035Z,-268.68
2023-04-30T01:06:09.333Z,-168.84
2023-04-30T01:07:11.649Z,-268.68
2023-04-30T01:08:13.946Z,-227.72
2023-04-30T01:09:16.275Z,-243.08
2023-04-30T01:10:18.560Z,-202.12
2023-04-30T01:11:21.886Z,-202.12
2023-04-30T01:12:25.136Z,-209.8
2023-04-30T01:13:28.436Z,-161.16
2023-04-30T01:14:31.746Z,-179.08
2023-04-30T01:15:35.021Z,-179.08
2023-04-30T01:16:38.308Z,-179.08
2023-04-30T01:17:41.686Z,-202.12
2023-04-30T01:18:45.550Z,-94.6
2023-04-30T01:20:52.206Z,-153.48
2023-04-30T01:21:55.428Z,-161.16
2023-04-30T01:22:58.777Z,-161.16
2023-04-30T01:24:00.999Z,-186.76
2023-04-30T01:25:04.306Z,-135.56
2023-04-30T01:26:07.589Z,-94.6
2023-04-30T01:27:10.894Z,-168.84
2023-04-30T01:28:14.204Z,-51.08
2023-04-30T01:29:17.478Z,-186.76
2023-04-30T01:30:20.793Z,-112.52
2023-04-30T01:31:23.138Z,-135.56
2023-04-30T01:32:25.556Z,-120.2
2023-04-30T01:33:27.785Z,-120.2
2023-04-30T01:34:31.022Z,-51.08
2023-04-30T01:35:33.313Z,-76.68
2023-04-30T01:36:35.608Z,-35.72
2023-04-30T01:37:38.903Z,-102.28
2023-04-30T01:38:42.454Z,-25.48
2023-04-30T01:39:45.920Z,-86.92
2023-04-30T01:40:49.142Z,-127.88
2023-04-30T01:41:52.416Z,-112.52
2023-04-30T01:42:55.745Z,-161.16
2023-04-30T01:43:59.027Z,-61.32
2023-04-30T01:45:02.281Z,-10.12
2023-04-30T01:46:05.524Z,-76.68
2023-04-30T01:47:08.811Z,7.81
2023-04-30T01:48:12.180Z,-35.72
2023-04-30T01:49:15.388Z,-61.32
2023-04-30T01:50:17.739Z,-43.4
2023-04-30T01:51:21.002Z,-61.32
2023-04-30T01:52:24.339Z,-86.92
2023-04-30T01:53:27.572Z,15.49
2023-04-30T01:54:30.875Z,-43.4
2023-04-30T01:55:34.148Z,-43.4
2023-04-30T01:56:37.436Z,-86.92
2023-04-30T01:57:39.771Z,-69
2023-04-30T01:58:42.067Z,15.49
2023-04-30T01:59:44.424Z,0.13
2023-04-30T02:00:46.744Z,7.81
2023-04-30T02:01:49.977Z,-17.8
2023-04-30T02:02:53.263Z,59.01
2023-04-30T02:03:56.615Z,7.81
2023-04-30T02:04:59.850Z,25.73
2023-04-30T02:06:03.157Z,102.53
2023-04-30T02:07:06.443Z,-10.12
2023-04-30T02:08:09.730Z,76.93
2023-04-30T02:09:13.033Z,102.53
2023-04-30T02:10:16.317Z,7.81
2023-04-30T02:11:19.589Z,59.01
2023-04-30T02:12:22.899Z,41.09
2023-04-30T02:13:26.200Z,94.85
2023-04-30T02:14:28.526Z,184.45
2023-04-30T02:15:31.801Z,166.53
2023-04-30T02:16:35.086Z,166.53
2023-04-30T02:17:38.364Z,302.21
2023-04-30T02:18:41.746Z,-230.27
2023-04-30T02:19:44.942Z,-260.99
2023-04-30T02:20:48.293Z,-212.35
2023-04-30T02:21:50.564Z,-107.39
2023-04-30T02:22:52.865Z,-230.27
2023-04-30T02:23:55.251Z,2.56
2023-04-30T02:24:57.498Z,-212.35
2023-04-30T02:26:00.776Z,-173.95
2023-04-30T02:27:04.062Z,284.25
2023-04-30T02:28:07.369Z,-212.35
2023-04-30T02:29:10.651Z,-212.35
2023-04-30T02:30:14.099Z,-194.43
2023-04-30T02:31:17.260Z,-212.35
2023-04-30T02:32:20.533Z,-115.07
2023-04-30T02:33:23.814Z,-212.35
2023-04-30T02:34:27.114Z,-115.07
2023-04-30T02:35:30.421Z,-97.15
2023-04-30T02:36:33.729Z,-212.35
2023-04-30T02:37:37.001Z,-194.43
2023-04-30T02:38:39.288Z,-97.15
2023-04-30T02:39:42.902Z,-163.71
2023-04-30T02:40:46.143Z,-230.27
2023-04-30T02:41:49.388Z,-222.59
2023-04-30T02:42:52.673Z,-230.27
2023-04-30T02:43:56.018Z,-230.27
2023-04-30T02:44:59.328Z,-260.99
2023-04-30T02:46:01.582Z,-184.19
2023-04-30T02:47:03.863Z,-222.59
2023-04-30T02:48:06.215Z,-222.59
2023-04-30T02:49:08.484Z,-173.95
2023-04-30T02:50:11.773Z,-135.55
2023-04-30T02:51:15.071Z,-156.03
2023-04-30T02:52:18.403Z,-145.79
2023-04-30T02:53:21.645Z,-38.27
2023-04-30T02:54:24.941Z,-107.39
2023-04-30T02:55:28.218Z,-163.71
2023-04-30T02:56:31.645Z,-38.27
2023-04-30T02:57:34.977Z,23.18
2023-04-30T02:58:38.107Z,-66.43
2023-04-30T02:59:41.469Z,-48.51
2023-04-30T03:00:44.697Z,-38.27
2023-04-30T03:01:47.972Z,-7.55
2023-04-30T03:02:50.290Z,41.1
2023-04-30T03:03:53.635Z,33.42
2023-04-30T03:04:56.891Z,-7.55
2023-04-30T03:06:00.171Z,-56.19
2023-04-30T03:07:03.472Z,-56.19
2023-04-30T03:08:06.769Z,-7.55
2023-04-30T03:09:10.055Z,-38.27
2023-04-30T03:10:12.347Z,-107.39
2023-04-30T03:11:14.718Z,-38.27
2023-04-30T03:12:16.967Z,-86.91
2023-04-30T03:13:20.379Z,-66.43
2023-04-30T03:14:23.664Z,-76.67
2023-04-30T03:15:26.962Z,-86.91
2023-04-30T03:16:30.270Z,-97.15
2023-04-30T03:17:33.555Z,-17.79
2023-04-30T03:18:36.831Z,-66.43
2023-04-30T03:19:40.196Z,-97.15
2023-04-30T03:20:43.560Z,-97.15
2023-04-30T03:21:46.844Z,-76.67
2023-04-30T03:22:50.006Z,-86.91
2023-04-30T03:23:53.307Z,2.7
2023-04-30T03:24:56.622Z,-86.91
2023-04-30T03:25:59.900Z,-7.55
2023-04-30T03:27:02.207Z,-38.27
2023-04-30T03:28:05.497Z,-56.19
2023-04-30T03:29:08.785Z,-38.27
2023-04-30T03:30:12.091Z,-7.55
2023-04-30T03:31:15.399Z,33.42
2023-04-30T03:32:18.734Z,-107.39
2023-04-30T03:33:21.975Z,-38.27
2023-04-30T03:34:24.318Z,-7.55
2023-04-30T03:35:26.582Z,23.18
2023-04-30T03:36:28.923Z,-107.39
2023-04-30T03:37:31.318Z,-56.19
2023-04-30T03:38:34.481Z,-38.27
2023-04-30T03:39:37.763Z,-17.79
2023-04-30T03:40:41.191Z,82.06
2023-04-30T03:41:44.384Z,112.78
2023-04-30T03:42:47.726Z,61.58
2023-04-30T03:43:50.988Z,-17.79
2023-04-30T03:44:54.354Z,102.54
2023-04-30T03:45:57.544Z,143.5
2023-04-30T03:47:00.921Z,184.46
2023-04-30T03:48:04.255Z,112.78
2023-04-30T03:49:07.399Z,82.06
2023-04-30T03:50:10.742Z,102.54
2023-04-30T03:51:13.044Z,143.5
2023-04-30T03:52:16.292Z,123.02
2023-04-30T03:53:19.597Z,133.26
2023-04-30T03:54:22.880Z,143.5
2023-04-30T03:55:26.219Z,143.5
2023-04-30T03:56:29.508Z,153.74
2023-04-30T03:57:32.853Z,123.02
2023-04-30T03:58:35.154Z,163.98
2023-04-30T03:59:37.442Z,133.26
2023-04-30T04:00:40.758Z,153.74
2023-04-30T04:01:44.037Z,51.34
2023-04-30T04:02:46.317Z,163.98
2023-04-30T04:03:48.622Z,227.98
2023-04-30T04:04:51.898Z,184.46
2023-04-30T04:05:55.274Z,143.5
2023-04-30T04:06:58.489Z,184.46
2023-04-30T04:08:01.840Z,207.5
2023-04-30T04:09:05.110Z,174.22
2023-04-30T04:10:08.515Z,207.5
2023-04-30T04:11:11.696Z,268.94
2023-04-30T04:12:14.984Z,163.98
2023-04-30T04:13:18.238Z,123.02
2023-04-30T04:14:21.536Z,258.7
2023-04-30T04:15:24.837Z,248.46
2023-04-30T04:16:28.199Z,197.26
2023-04-30T04:17:30.435Z,227.98
2023-04-30T04:18:33.740Z,184.46
2023-04-30T04:19:37.000Z,174.22
2023-04-30T04:20:40.306Z,217.74
2023-04-30T04:21:43.610Z,258.7
2023-04-30T04:22:46.871Z,217.74
2023-04-30T04:23:50.273Z,312.46
2023-04-30T04:25:55.834Z,2.56
2023-04-30T04:26:58.109Z,217.74
2023-04-30T04:28:00.426Z,291.98
2023-04-30T04:29:03.728Z,227.98
2023-04-30T04:30:06.200Z,238.22
2023-04-30T04:31:08.319Z,217.74
2023-04-30T04:32:11.628Z,174.22
2023-04-30T04:33:14.889Z,227.98
2023-04-30T04:34:18.196Z,291.98
2023-04-30T04:35:21.496Z,268.94
2023-04-30T04:36:24.781Z,312.46
2023-04-30T04:37:28.156Z,238.22
2023-04-30T04:38:31.378Z,-289.14
2023-04-30T04:39:34.718Z,268.94
2023-04-30T04:40:37.945Z,291.98
2023-04-30T04:41:41.365Z,-322.42
2023-04-30T04:42:44.619Z,-322.42
2023-04-30T04:43:47.966Z,312.46
2023-04-30T04:44:50.154Z,-312.18
2023-04-30T04:45:53.420Z,-299.38
2023-04-30T04:46:56.716Z,238.22
2023-04-30T04:48:00.032Z,268.94
2023-04-30T04:49:03.334Z,-322.42
2023-04-30T04:50:06.594Z,291.98
2023-04-30T04:51:09.976Z,312.46
2023-04-30T04:52:12.267Z,312.46
2023-04-30T04:53:14.503Z,291.98
2023-04-30T04:54:16.833Z,322.7
2023-04-30T04:55:19.183Z,-299.38
2023-04-30T04:56:22.414Z,-235.38
2023-04-30T04:57:25.703Z,312.46
2023-04-30T04:58:29.150Z,-299.38
2023-04-30T04:59:32.397Z,-191.86
2023-04-30T05:00:35.794Z,302.22
2023-04-30T05:01:38.893Z,-322.42
2023-04-30T05:02:41.273Z,-235.38
2023-04-30T05:03:44.633Z,-235.38
2023-04-30T05:04:47.758Z,-255.86
2023-04-30T05:05:51.082Z,-268.66
2023-04-30T05:06:54.346Z,-322.42
2023-04-30T05:07:57.664Z,-278.9
2023-04-30T05:09:00.966Z,-268.66
2023-04-30T05:10:04.216Z,-225.14
2023-04-30T05:11:07.513Z,-235.38
2023-04-30T05:12:10.853Z,-255.86
2023-04-30T05:13:14.192Z,-235.38
2023-04-30T05:14:17.407Z,-225.14
2023-04-30T05:15:20.742Z,-212.34
2023-04-30T05:16:23.076Z,-268.66
2023-04-30T05:17:25.341Z,-235.38
2023-04-30T05:18:27.610Z,-225.14
2023-04-30T05:19:29.928Z,-168.82
2023-04-30T05:20:33.326Z,-68.98
2023-04-30T05:21:36.548Z,-245.62
2023-04-30T05:22:39.848Z,-191.86
2023-04-30T05:23:43.100Z,-181.62
2023-04-30T05:24:46.379Z,-202.1
2023-04-30T05:25:50.069Z,-245.62
2023-04-30T05:26:53.322Z,-299.38
2023-04-30T05:27:56.580Z,-255.86
2023-04-30T05:28:59.864Z,-212.34
2023-04-30T05:30:03.127Z,-168.82
2023-04-30T05:31:06.588Z,-191.86
2023-04-30T05:32:09.844Z,-191.86
2023-04-30T05:34:15.367Z,-168.82
2023-04-30T05:35:18.630Z,-168.82
2023-04-30T05:36:22.027Z,-107.38
2023-04-30T05:37:25.236Z,-84.34
2023-04-30T05:38:28.572Z,-212.34
2023-04-30T05:39:31.805Z,-74.1
2023-04-30T05:40:35.211Z,2.56
2023-04-30T05:41:37.451Z,-168.82
2023-04-30T05:42:39.727Z,-102.26
2023-04-30T05:43:42.022Z,-202.1
2023-04-30T05:44:44.417Z,-68.98
2023-04-30T05:45:47.631Z,-168.82
2023-04-30T05:46:50.969Z,-28.02
2023-04-30T05:47:54.324Z,-17.78
2023-04-30T05:48:57.549Z,-74.1
2023-04-30T05:50:00.861Z,-28.02
2023-04-30T05:51:04.205Z,-12.66
2023-04-30T05:52:07.389Z,28.31
2023-04-30T05:53:10.657Z,56.47
2023-04-30T05:54:14.130Z,28.31
2023-04-30T05:55:17.377Z,-51.06
2023-04-30T05:56:20.600Z,-181.62
2023-04-30T05:57:23.883Z,-235.38
2023-04-30T05:58:26.183Z,-289.14
2023-04-30T05:59:29.461Z,312.46
2023-04-30T06:00:32.776Z,-322.42
2023-04-30T06:01:36.158Z,302.22
2023-04-30T06:02:39.548Z,312.46
2023-04-30T06:03:42.687Z,240.79
2023-04-30T06:04:45.897Z,-325
2023-04-30T06:05:48.303Z,227.97
2023-04-30T06:06:50.542Z,-156.03
2023-04-30T06:07:53.929Z,-48.51
2023-04-30T06:08:57.102Z,-38.27
2023-04-30T06:09:59.640Z,41.1
2023-04-30T06:11:01.752Z,23.18
2023-04-30T06:12:05.022Z,112.78
2023-04-30T06:13:08.360Z,133.26
2023-04-30T06:14:11.606Z,102.54
2023-04-30T06:15:14.969Z,174.22
2023-04-30T06:16:18.300Z,227.98
2023-04-30T06:17:21.527Z,258.7
2023-04-30T06:18:24.797Z,197.26
2023-04-30T06:19:28.102Z,238.22
2023-04-30T06:20:31.389Z,217.74
2023-04-30T06:21:34.757Z,268.94
2023-04-30T06:22:37.946Z,227.98
2023-04-30T06:23:41.240Z,279.18
2023-04-30T06:24:43.575Z,-322.42
2023-04-30T06:25:47.323Z,238.22
2023-04-30T06:26:50.676Z,312.46
2023-04-30T06:27:53.861Z,-278.9
2023-04-30T06:28:57.147Z,-322.42
2023-04-30T06:30:00.453Z,-255.86
2023-04-30T06:31:03.734Z,-235.38
2023-04-30T06:32:06.061Z,-202.1
2023-04-30T06:33:08.348Z,-168.82
2023-04-30T06:34:10.683Z,-191.86
2023-04-30T06:35:12.987Z,-127.86
2023-04-30T06:36:16.301Z,-191.86
2023-04-30T06:37:19.546Z,-181.62
2023-04-30T06:38:22.879Z,-245.62
2023-04-30T06:39:26.153Z,-235.38
2023-04-30T06:40:29.445Z,-255.86
2023-04-30T06:41:32.808Z,-225.14
2023-04-30T06:42:36.067Z,-84.34
2023-04-30T06:43:39.314Z,-181.62
2023-04-30T06:44:42.601Z,-168.82
2023-04-30T06:45:45.879Z,-225.14
2023-04-30T06:46:49.189Z,-212.34
2023-04-30T06:47:52.493Z,-122.74
2023-04-30T06:48:54.790Z,-235.38
2023-04-30T06:49:58.205Z,-191.86
2023-04-30T06:51:01.510Z,-107.38
2023-04-30T06:52:04.661Z,-35.7
2023-04-30T06:53:07.969Z,-79.22
2023-04-30T06:54:11.331Z,-56.18
2023-04-30T06:55:14.571Z,-61.3
2023-04-30T06:56:16.861Z,-22.9
2023-04-30T06:57:19.203Z,-181.62
2023-04-30T06:58:21.472Z,-117.62
2023-04-30T06:59:23.796Z,-168.82
2023-04-30T07:00:27.063Z,-168.82
2023-04-30T07:01:30.363Z,-89.46
2023-04-30T07:02:33.655Z,-61.3
2023-04-30T07:03:36.950Z,-89.46
2023-04-30T07:04:40.248Z,-202.1
2023-04-30T07:05:43.531Z,-245.62
2023-04-30T07:06:46.828Z,-122.74
2023-04-30T07:07:50.565Z,-191.86
2023-04-30T07:08:53.815Z,-84.34
2023-04-30T07:09:57.288Z,-117.62
2023-04-30T07:11:00.394Z,-150.9
2023-04-30T07:12:03.679Z,-79.22
2023-04-30T07:13:05.995Z,-94.58
2023-04-30T07:14:09.269Z,-56.18
2023-04-30T07:15:12.552Z,5.27
2023-04-30T07:16:15.853Z,-112.5
2023-04-30T07:17:19.157Z,51.35
2023-04-30T07:18:22.483Z,-89.46
2023-04-30T07:19:25.753Z,-7.54
2023-04-30T07:20:28.034Z,20.63
2023-04-30T07:21:30.405Z,28.31
2023-04-30T07:22:32.661Z,33.43
2023-04-30T07:23:34.979Z,-171.59
2023-04-30T07:24:38.279Z,10.39
2023-04-30T07:25:41.560Z,10.39
2023-04-30T07:26:44.915Z,33.43
2023-04-30T07:27:48.187Z,15.51
2023-04-30T07:28:51.519Z,28.31
2023-04-30T07:29:54.724Z,51.35
2023-04-30T07:30:58.185Z,51.35
2023-04-30T07:32:01.336Z,0.15
2023-04-30T07:33:04.621Z,15.51
2023-04-30T07:34:07.892Z,28.31
2023-04-30T07:35:11.194Z,43.67
2023-04-30T07:36:14.663Z,61.59
2023-04-30T07:37:16.879Z,5.27
2023-04-30T07:38:20.078Z,140.95
2023-04-30T07:39:23.367Z,102.56
2023-04-30T07:40:26.753Z,-307.07
2023-04-30T07:41:29.961Z,-225.14
2023-04-30T07:42:33.331Z,253.59
2023-04-30T07:43:36.538Z,-140.65
2023-04-30T07:44:38.906Z,97.44
2023-04-30T07:45:41.163Z,289.44
2023-04-30T07:46:44.865Z,-227.68
2023-04-30T07:47:47.114Z,-166.24
2023-04-30T07:48:50.889Z,-166.24
2023-04-30T07:49:53.370Z,-86.88
2023-04-30T07:50:56.643Z,-130.4
2023-04-30T07:51:59.788Z,-138.08
2023-04-30T07:53:03.260Z,-166.24
2023-04-30T07:54:06.521Z,-138.08
2023-04-30T07:55:09.790Z,-276.32
2023-04-30T07:56:12.924Z,-227.68
2023-04-30T07:57:16.265Z,222.88
2023-04-30T07:58:19.522Z,281.76
2023-04-30T07:59:22.878Z,202.4
2023-04-30T08:00:26.274Z,243.36
2023-04-30T08:01:29.541Z,248.48
2023-04-30T08:02:32.833Z,-268.64
2023-04-30T08:03:35.132Z,263.84
2023-04-30T08:04:38.372Z,309.92
2023-04-30T08:05:41.618Z,235.68
2023-04-30T08:06:45.124Z,281.76
2023-04-30T08:07:48.594Z,235.68
2023-04-30T08:08:51.708Z,228
2023-04-30T08:09:54.150Z,210.08
2023-04-30T08:10:56.499Z,189.6
2023-04-30T08:11:59.769Z,263.84
2023-04-30T08:13:02.188Z,189.6
2023-04-30T08:14:04.451Z,161.44
2023-04-30T08:15:07.780Z,130.72
2023-04-30T08:16:10.981Z,123.04
2023-04-30T08:17:14.214Z,84.64
2023-04-30T08:18:17.410Z,89.76
2023-04-30T08:19:20.802Z,189.6
2023-04-30T08:20:24.096Z,64.16
2023-04-30T08:21:27.350Z,135.84
2023-04-30T08:22:30.643Z,76.96
2023-04-30T08:23:33.955Z,43.68
2023-04-30T08:24:37.189Z,51.36
2023-04-30T08:25:40.497Z,71.84
2023-04-30T08:26:43.779Z,30.88
2023-04-30T08:27:46.123Z,25.76
2023-04-30T08:28:49.494Z,-33.13
2023-04-30T08:29:52.751Z,76.96
2023-04-30T08:30:56.002Z,-38.25
2023-04-30T08:31:59.232Z,5.28
2023-04-30T08:33:02.550Z,5.28
2023-04-30T08:34:04.843Z,0.16
2023-04-30T08:35:07.212Z,-38.25
2023-04-30T08:36:09.460Z,12.96
2023-04-30T08:37:11.748Z,-51.05
2023-04-30T08:38:14.066Z,-58.73
2023-04-30T08:39:17.488Z,-33.13
2023-04-30T08:40:20.744Z,0.16
2023-04-30T08:41:23.940Z,-33.13
2023-04-30T08:42:27.245Z,-33.13
2023-04-30T08:43:30.552Z,-38.25
2023-04-30T08:44:33.803Z,0.16
2023-04-30T08:45:37.120Z,-71.53
2023-04-30T08:46:40.425Z,-45.93
2023-04-30T08:47:43.702Z,-115.05
2023-04-30T08:48:47.013Z,-51.05
2023-04-30T08:49:50.448Z,-58.73
2023-04-30T08:50:53.757Z,-45.93
2023-04-30T08:51:55.870Z,-63.85
2023-04-30T08:52:59.237Z,-25.45
2023-04-30T08:54:02.470Z,-115.05
2023-04-30T08:55:05.765Z,5.28
2023-04-30T08:56:09.050Z,-25.45
2023-04-30T08:57:12.409Z,25.76
2023-04-30T08:58:15.703Z,25.76
2023-04-30T08:59:17.951Z,-51.05
2023-04-30T09:00:20.256Z,-63.85
2023-04-30T09:01:23.660Z,-107.37
2023-04-30T09:02:25.844Z,-120.17
2023-04-30T09:03:28.192Z,-25.45
2023-04-30T09:04:31.467Z,-63.85
2023-04-30T09:05:34.749Z,97.44
2023-04-30T09:06:38.153Z,2.56
2023-04-30T09:07:41.341Z,-45.93
2023-04-30T09:08:44.625Z,12.96
2023-04-30T09:09:48.423Z,102.56
2023-04-30T09:10:51.720Z,143.52
2023-04-30T09:11:54.850Z,97.44
2023-04-30T09:12:58.143Z,-25.45
2023-04-30T09:14:01.537Z,-20.33
2023-04-30T09:15:04.760Z,-102.25
2023-04-30T09:16:08.017Z,-102.25
2023-04-30T09:17:10.343Z,-132.97
2023-04-30T09:18:13.654Z,-171.37
2023-04-30T09:19:16.930Z,-214.89
2023-04-30T09:20:20.190Z,-268.65
2023-04-30T09:21:23.491Z,-237.93
2023-04-30T09:22:26.783Z,-171.37
2023-04-30T09:23:30.170Z,-281.45
2023-04-30T09:24:32.398Z,-163.69
2023-04-30T09:25:34.695Z,-176.49
2023-04-30T09:26:37.004Z,-207.21
2023-04-30T09:27:39.337Z,-176.49
2023-04-30T09:29:46.027Z,-250.73
2023-04-30T09:30:49.175Z,-232.81
2023-04-30T09:31:52.513Z,-220.01
2023-04-30T09:32:55.846Z,-214.89
2023-04-30T09:33:59.206Z,-176.49
2023-04-30T09:35:02.346Z,-189.29
2023-04-30T09:36:05.635Z,-255.85
2023-04-30T09:37:08.975Z,-115.05
2023-04-30T09:38:12.220Z,-145.77
2023-04-30T09:39:15.531Z,-171.37
2023-04-30T09:40:18.805Z,-145.77
2023-04-30T09:41:21.240Z,-153.45
2023-04-30T09:42:24.469Z,-76.65
2023-04-30T09:43:27.711Z,-132.97
2023-04-30T09:44:31.043Z,-102.25
2023-04-30T09:45:34.290Z,-227.69
2023-04-30T09:46:37.583Z,-127.85
2023-04-30T09:47:41.029Z,-115.05
2023-04-30T09:48:44.236Z,-84.33
2023-04-30T09:49:46.486Z,-84.33
2023-04-30T09:50:48.927Z,-76.65
2023-04-30T09:51:51.137Z,-94.57
2023-04-30T09:52:53.464Z,-63.85
2023-04-30T09:53:56.712Z,-76.65
2023-04-30T09:55:00.087Z,38.56
2023-04-30T09:56:03.298Z,-127.85
2023-04-30T09:57:06.657Z,12.96
2023-04-30T09:58:09.875Z,-89.45
2023-04-30T09:59:13.209Z,-102.25
2023-04-30T10:00:16.448Z,-7.53
2023-04-30T10:01:19.891Z,-25.45
2023-04-30T10:02:23.025Z,-63.85
2023-04-30T10:03:26.329Z,71.84
2023-04-30T10:04:29.634Z,71.84
2023-04-30T10:05:32.926Z,102.56
2023-04-30T10:06:35.247Z,110.24
2023-04-30T10:07:38.534Z,161.44
2023-04-30T10:08:41.786Z,143.52
2023-04-30T10:09:45.191Z,51.36
2023-04-30T10:10:48.649Z,322.72
2023-04-30T10:11:52.078Z,176.8
2023-04-30T10:12:55.322Z,30.88
2023-04-30T10:13:57.553Z,76.96
2023-04-30T10:14:59.868Z,110.24
2023-04-30T10:16:02.188Z,289.44
2023-04-30T10:17:04.482Z,263.84
2023-04-30T10:18:07.767Z,215.2
2023-04-30T10:19:11.226Z,181.92
2023-04-30T10:20:14.353Z,189.6
2023-04-30T10:21:17.655Z,102.56
2023-04-30T10:22:20.942Z,64.16
2023-04-30T10:23:24.231Z,235.68
2023-04-30T10:24:27.574Z,102.56
2023-04-30T10:25:30.819Z,161.44
2023-04-30T10:26:34.093Z,51.36
2023-04-30T10:27:37.416Z,130.72
2023-04-30T10:28:40.702Z,202.4
2023-04-30T10:29:44.130Z,181.92
2023-04-30T10:30:46.279Z,135.84
2023-04-30T10:31:49.605Z,143.52
2023-04-30T10:32:52.869Z,0.16
2023-04-30T10:33:56.187Z,76.96
2023-04-30T10:34:59.445Z,71.84
2023-04-30T10:36:02.738Z,115.36
2023-04-30T10:37:06.134Z,89.76
2023-04-30T10:38:08.437Z,51.36
2023-04-30T10:39:10.663Z,194.72
2023-04-30T10:40:13.038Z,228
2023-04-30T10:41:15.302Z,130.72
2023-04-30T10:42:18.669Z,123.04
2023-04-30T10:43:21.859Z,97.44
2023-04-30T10:44:25.153Z,115.36
2023-04-30T10:45:28.431Z,71.84
2023-04-30T10:46:31.781Z,-12.65
2023-04-30T10:47:35.038Z,12.96
2023-04-30T10:48:38.319Z,76.96
2023-04-30T10:49:41.735Z,123.04
2023-04-30T10:50:44.971Z,89.76
2023-04-30T10:51:48.244Z,115.36
2023-04-30T10:52:51.479Z,189.6
2023-04-30T10:53:54.790Z,135.84
2023-04-30T10:54:57.146Z,156.32
2023-04-30T10:56:00.394Z,222.88
2023-04-30T10:57:03.683Z,263.84
2023-04-30T10:58:06.968Z,156.32
2023-04-30T10:59:10.250Z,317.6
2023-04-30T11:00:13.631Z,263.84
2023-04-30T11:01:17.030Z,-304.48
2023-04-30T11:02:19.216Z,302.24
2023-04-30T11:03:21.520Z,2.56
2023-04-30T11:04:23.775Z,268.96
2023-04-30T11:05:26.123Z,276.64
2023-04-30T11:06:29.384Z,276.64
2023-04-30T11:07:32.690Z,248.48
2023-04-30T11:08:36.018Z,317.6
2023-04-30T11:09:39.309Z,309.92
2023-04-30T11:10:42.600Z,263.84
2023-04-30T11:11:46.074Z,235.68
2023-04-30T11:12:49.346Z,189.6
2023-04-30T11:13:52.639Z,228
2023-04-30T11:14:56.038Z,268.96
2023-04-30T11:15:59.216Z,202.4
2023-04-30T11:17:02.514Z,256.16
2023-04-30T11:18:05.811Z,-304.48
2023-04-30T11:19:09.279Z,210.08
2023-04-30T11:20:12.625Z,268.96
2023-04-30T11:21:15.792Z,289.44
2023-04-30T11:22:19.090Z,235.68
2023-04-30T11:23:22.391Z,235.68
2023-04-30T11:24:25.664Z,248.48
2023-04-30T11:25:28.958Z,263.84
2023-04-30T11:26:31.279Z,276.64
2023-04-30T11:27:33.601Z,322.72
2023-04-30T11:28:36.031Z,263.84
2023-04-30T11:29:38.227Z,302.24
2023-04-30T11:30:41.586Z,276.64
2023-04-30T11:31:44.831Z,248.48
2023-04-30T11:32:48.090Z,-324.96
2023-04-30T11:33:51.360Z,-296.8
2023-04-30T11:34:54.741Z,302.24
2023-04-30T11:35:58.151Z,-158.56
2023-04-30T11:37:01.326Z,-235.36
2023-04-30T11:38:04.610Z,-317.28
2023-04-30T11:39:07.840Z,-317.28
2023-04-30T11:40:11.198Z,-227.68
2023-04-30T11:41:14.506Z,-235.36
2023-04-30T11:42:17.697Z,-243.04
2023-04-30T11:43:20.012Z,-194.4
2023-04-30T11:44:23.311Z,-243.04
2023-04-30T11:45:26.747Z,-291.68
2023-04-30T11:46:29.910Z,-296.8
2023-04-30T11:47:33.211Z,-312.16
2023-04-30T11:48:36.563Z,309.92
2023-04-30T11:49:39.848Z,-248.16
2023-04-30T11:50:42.144Z,-312.16
2023-04-30T11:51:44.475Z,-179.04
2023-04-30T11:52:46.714Z,-186.72
2023-04-30T11:53:49.342Z,-122.72
2023-04-30T11:54:52.620Z,-194.4
2023-04-30T11:55:56.032Z,-143.2
2023-04-30T11:56:59.209Z,-102.24
2023-04-30T11:58:02.487Z,-79.2
2023-04-30T11:59:05.853Z,-79.2
2023-04-30T12:00:09.240Z,-102.24
2023-04-30T12:01:12.437Z,-179.04
2023-04-30T12:02:15.672Z,-143.2
2023-04-30T12:03:18.970Z,-74.08
2023-04-30T12:04:22.255Z,-30.56
2023-04-30T12:05:24.570Z,-2.4
2023-04-30T12:06:27.921Z,-38.24
2023-04-30T12:07:31.160Z,-30.56
2023-04-30T12:08:34.504Z,71.85
2023-04-30T12:09:37.755Z,-2.4
2023-04-30T12:10:41.209Z,5.29
2023-04-30T12:11:44.445Z,36.01
2023-04-30T12:12:47.622Z,48.81
2023-04-30T12:13:50.938Z,64.17
2023-04-30T12:14:53.233Z,12.97
2023-04-30T12:15:55.530Z,71.85
2023-04-30T12:16:57.852Z,100.01
2023-04-30T12:18:00.188Z,28.33
2023-04-30T12:19:03.450Z,12.97
2023-04-30T12:20:06.736Z,87.21
2023-04-30T12:21:10.081Z,64.17
2023-04-30T12:22:13.326Z,56.49
2023-04-30T12:23:16.688Z,87.21
2023-04-30T12:24:19.914Z,56.49
2023-04-30T12:25:23.254Z,64.17
2023-04-30T12:26:26.492Z,123.05
2023-04-30T12:27:29.803Z,48.81
2023-04-30T12:28:33.093Z,130.73
2023-04-30T12:29:36.465Z,56.49
2023-04-30T12:30:39.670Z,100.01
2023-04-30T12:31:41.989Z,266.41
2023-04-30T12:32:45.257Z,138.41
2023-04-30T12:33:48.542Z,220.33
2023-04-30T12:34:51.938Z,115.37
2023-04-30T12:35:55.128Z,161.45
2023-04-30T12:36:58.455Z,161.45
2023-04-30T12:38:01.717Z,130.73
2023-04-30T12:39:04.055Z,181.93
2023-04-30T12:40:06.338Z,197.29
2023-04-30T12:41:09.655Z,228.01
2023-04-30T12:42:12.910Z,212.65
2023-04-30T12:43:15.251Z,146.09
2023-04-30T12:44:17.532Z,220.33
2023-04-30T12:45:20.835Z,212.65
2023-04-30T12:46:24.128Z,87.21
2023-04-30T12:47:27.411Z,123.05
2023-04-30T12:48:30.706Z,146.09
2023-04-30T12:49:34.218Z,174.25
2023-04-30T12:50:37.346Z,181.93
2023-04-30T12:51:40.709Z,204.97
2023-04-30T12:52:43.995Z,71.85
2023-04-30T12:53:47.264Z,174.25
2023-04-30T12:54:50.515Z,146.09
2023-04-30T12:55:53.743Z,123.05
2023-04-30T12:56:57.022Z,220.33
2023-04-30T12:57:59.339Z,146.09
2023-04-30T12:59:02.653Z,169.13
2023-04-30T13:00:05.934Z,153.77
2023-04-30T13:01:09.218Z,161.45
2023-04-30T13:02:12.550Z,212.65
2023-04-30T13:03:15.915Z,297.13
2023-04-30T13:04:19.101Z,220.33
2023-04-30T13:05:21.448Z,189.61
2023-04-30T13:06:23.718Z,228.01
2023-04-30T13:07:27.042Z,297.13
2023-04-30T13:08:30.341Z,297.13
2023-04-30T13:09:33.592Z,146.09
2023-04-30T13:10:36.958Z,189.61
2023-04-30T13:11:40.264Z,281.77
2023-04-30T13:12:43.518Z,-304.47